sensor_id;sensor_type;location;lat;lon;timestamp;pressure;altitude;pressure_sealevel;temperature;humidity
57050;BME280;42935;50.966;16.992;2024-02-23T00:00:42;99174.66;;;8.72;100.00
57050;BME280;42935;50.966;16.992;2024-02-23T00:04:04;99171.92;;;8.75;100.00
57050;BME280;42935;50.966;16.992;2024-02-23T00:07:24;99165.23;;;8.81;100.00
57050;BME280;42935;50.966;16.992;2024-02-23T00:10:47;99154.20;;;8.77;100.00
57050;BME280;42935;50.966;16.992;2024-02-23T00:14:06;99147.16;;;8.90;100.00
57050;BME280;42935;50.966;16.992;2024-02-23T00:17:26;99160.21;;;8.96;100.00
57050;BME280;42935;50.966;16.992;2024-02-23T00:20:45;99159.82;;;8.91;100.00
57050;BME280;42935;50.966;16.992;2024-02-23T00:24:05;99163.68;;;8.90;100.00
57050;BME280;42935;50.966;16.992;2024-02-23T00:27:26;99147.82;;;8.81;100.00
57050;BME280;42935;50.966;16.992;2024-02-23T00:30:48;99170.91;;;8.99;100.00
57050;BME280;42935;50.966;16.992;2024-02-23T00:34:11;99144.94;;;8.96;100.00
57050;BME280;42935;50.966;16.992;2024-02-23T00:37:32;99167.66;;;9.07;100.00
57050;BME280;42935;50.966;16.992;2024-02-23T00:40:59;99167.65;;;9.00;100.00
57050;BME280;42935;50.966;16.992;2024-02-23T00:44:29;99173.48;;;9.03;100.00
57050;BME280;42935;50.966;16.992;2024-02-23T00:47:50;99162.83;;;9.02;100.00
57050;BME280;42935;50.966;16.992;2024-02-23T00:51:12;99176.23;;;9.03;100.00
57050;BME280;42935;50.966;16.992;2024-02-23T00:54:29;99135.92;;;8.80;100.00
57050;BME280;42935;50.966;16.992;2024-02-23T00:57:46;99174.37;;;9.11;100.00
57050;BME280;42935;50.966;16.992;2024-02-23T01:01:03;99167.33;;;9.09;100.00
57050;BME280;42935;50.966;16.992;2024-02-23T01:04:23;99151.29;;;9.05;100.00
57050;BME280;42935;50.966;16.992;2024-02-23T01:07:45;99149.29;;;9.07;100.00
57050;BME280;42935;50.966;16.992;2024-02-23T01:11:07;99145.13;;;8.86;100.00
57050;BME280;42935;50.966;16.992;2024-02-23T01:14:28;99147.48;;;8.74;100.00
57050;BME280;42935;50.966;16.992;2024-02-23T01:17:51;99144.20;;;8.68;100.00
57050;BME280;42935;50.966;16.992;2024-02-23T01:21:13;99139.41;;;8.64;100.00
57050;BME280;42935;50.966;16.992;2024-02-23T01:24:36;99139.65;;;8.66;100.00
57050;BME280;42935;50.966;16.992;2024-02-23T01:27:57;99145.73;;;8.72;100.00
57050;BME280;42935;50.966;16.992;2024-02-23T01:31:17;99130.55;;;8.54;100.00
57050;BME280;42935;50.966;16.992;2024-02-23T01:34:35;99151.29;;;8.64;100.00
57050;BME280;42935;50.966;16.992;2024-02-23T01:37:56;99124.78;;;8.49;100.00
57050;BME280;42935;50.966;16.992;2024-02-23T01:41:13;99147.20;;;8.67;100.00
57050;BME280;42935;50.966;16.992;2024-02-23T01:44:34;99131.03;;;8.58;100.00
57050;BME280;42935;50.966;16.992;2024-02-23T01:47:54;99144.13;;;8.66;100.00
57050;BME280;42935;50.966;16.992;2024-02-23T01:51:18;99141.23;;;8.61;100.00
57050;BME280;42935;50.966;16.992;2024-02-23T01:54:36;99139.40;;;8.55;100.00
57050;BME280;42935;50.966;16.992;2024-02-23T01:57:59;99133.95;;;8.57;100.00
57050;BME280;42935;50.966;16.992;2024-02-23T02:01:20;99141.02;;;8.66;100.00
57050;BME280;42935;50.966;16.992;2024-02-23T02:04:44;99130.83;;;8.71;100.00
57050;BME280;42935;50.966;16.992;2024-02-23T02:08:06;99124.27;;;8.60;100.00
57050;BME280;42935;50.966;16.992;2024-02-23T02:11:28;99107.50;;;8.48;100.00
57050;BME280;42935;50.966;16.992;2024-02-23T02:14:49;99116.29;;;8.60;100.00
57050;BME280;42935;50.966;16.992;2024-02-23T02:18:11;99106.12;;;8.61;100.00
57050;BME280;42935;50.966;16.992;2024-02-23T02:21:32;99090.88;;;8.58;100.00
57050;BME280;42935;50.966;16.992;2024-02-23T02:24:50;99096.68;;;8.59;100.00
57050;BME280;42935;50.966;16.992;2024-02-23T02:28:11;99106.88;;;8.57;100.00
57050;BME280;42935;50.966;16.992;2024-02-23T02:31:33;99100.45;;;8.59;100.00
57050;BME280;42935;50.966;16.992;2024-02-23T02:34:57;99120.73;;;8.62;100.00
57050;BME280;42935;50.966;16.992;2024-02-23T02:38:19;99138.33;;;8.63;100.00
57050;BME280;42935;50.966;16.992;2024-02-23T02:41:39;99141.09;;;8.67;100.00
57050;BME280;42935;50.966;16.992;2024-02-23T02:45:03;99131.16;;;8.60;100.00
57050;BME280;42935;50.966;16.992;2024-02-23T02:48:22;99136.70;;;8.61;100.00
57050;BME280;42935;50.966;16.992;2024-02-23T02:51:44;99142.13;;;8.63;100.00
57050;BME280;42935;50.966;16.992;2024-02-23T02:55:04;99134.88;;;8.59;100.00
57050;BME280;42935;50.966;16.992;2024-02-23T02:58:22;99144.88;;;8.66;100.00
57050;BME280;42935;50.966;16.992;2024-02-23T03:01:39;99138.25;;;8.60;100.00
57050;BME280;42935;50.966;16.992;2024-02-23T03:04:56;99127.66;;;8.50;100.00
57050;BME280;42935;50.966;16.992;2024-02-23T03:08:18;99136.48;;;8.58;100.00
57050;BME280;42935;50.966;16.992;2024-02-23T03:11:39;99132.29;;;8.54;100.00
57050;BME280;42935;50.966;16.992;2024-02-23T03:15:00;99125.60;;;8.58;100.00
57050;BME280;42935;50.966;16.992;2024-02-23T03:18:25;99127.10;;;8.59;100.00
57050;BME280;42935;50.966;16.992;2024-02-23T03:21:49;99112.56;;;8.60;100.00
57050;BME280;42935;50.966;16.992;2024-02-23T03:25:08;99120.98;;;8.61;100.00
57050;BME280;42935;50.966;16.992;2024-02-23T03:28:31;99114.94;;;8.49;100.00
57050;BME280;42935;50.966;16.992;2024-02-23T03:31:50;99124.02;;;8.57;100.00
57050;BME280;42935;50.966;16.992;2024-02-23T03:35:16;99125.96;;;8.63;100.00
57050;BME280;42935;50.966;16.992;2024-02-23T03:38:34;99167.22;;;8.68;100.00
57050;BME280;42935;50.966;16.992;2024-02-23T03:41:56;99198.52;;;8.72;100.00
57050;BME280;42935;50.966;16.992;2024-02-23T03:45:15;99215.77;;;8.68;100.00
57050;BME280;42935;50.966;16.992;2024-02-23T03:48:34;99233.27;;;8.67;100.00
57050;BME280;42935;50.966;16.992;2024-02-23T03:51:52;99263.91;;;8.73;100.00
57050;BME280;42935;50.966;16.992;2024-02-23T03:55:13;99273.10;;;8.72;100.00
57050;BME280;42935;50.966;16.992;2024-02-23T03:58:33;99274.51;;;8.70;100.00
57050;BME280;42935;50.966;16.992;2024-02-23T04:01:55;99295.71;;;8.69;100.00
57050;BME280;42935;50.966;16.992;2024-02-23T04:05:11;99299.45;;;8.65;100.00
57050;BME280;42935;50.966;16.992;2024-02-23T04:08:32;99303.32;;;8.61;100.00
57050;BME280;42935;50.966;16.992;2024-02-23T04:11:51;99313.77;;;8.61;100.00
57050;BME280;42935;50.966;16.992;2024-02-23T04:15:42;99327.38;;;8.67;100.00
57050;BME280;42935;50.966;16.992;2024-02-23T04:18:58;99312.70;;;8.55;100.00
57050;BME280;42935;50.966;16.992;2024-02-23T04:22:21;99329.63;;;8.61;100.00
57050;BME280;42935;50.966;16.992;2024-02-23T04:25:43;99317.13;;;8.54;100.00
57050;BME280;42935;50.966;16.992;2024-02-23T04:29:03;99321.83;;;8.44;100.00
57050;BME280;42935;50.966;16.992;2024-02-23T04:32:24;99310.66;;;8.32;100.00
57050;BME280;42935;50.966;16.992;2024-02-23T04:35:46;99314.75;;;8.23;100.00
57050;BME280;42935;50.966;16.992;2024-02-23T04:39:04;99320.48;;;8.17;100.00
57050;BME280;42935;50.966;16.992;2024-02-23T04:42:21;99310.70;;;8.05;100.00
57050;BME280;42935;50.966;16.992;2024-02-23T04:46:11;99316.29;;;8.09;100.00
57050;BME280;42935;50.966;16.992;2024-02-23T04:49:32;99321.92;;;8.12;100.00
57050;BME280;42935;50.966;16.992;2024-02-23T04:52:53;99321.38;;;8.15;100.00
57050;BME280;42935;50.966;16.992;2024-02-23T04:56:15;99327.14;;;8.18;100.00
57050;BME280;42935;50.966;16.992;2024-02-23T04:59:37;99338.20;;;8.18;100.00
57050;BME280;42935;50.966;16.992;2024-02-23T05:02:54;99337.84;;;8.10;100.00
57050;BME280;42935;50.966;16.992;2024-02-23T05:06:14;99357.21;;;8.19;100.00
57050;BME280;42935;50.966;16.992;2024-02-23T05:09:36;99369.98;;;8.18;100.00
57050;BME280;42935;50.966;16.992;2024-02-23T05:12:57;99361.97;;;8.13;100.00
57050;BME280;42935;50.966;16.992;2024-02-23T05:16:17;99371.24;;;8.08;100.00
57050;BME280;42935;50.966;16.992;2024-02-23T05:19:35;99382.05;;;8.07;100.00
57050;BME280;42935;50.966;16.992;2024-02-23T05:22:57;99388.35;;;8.07;100.00
57050;BME280;42935;50.966;16.992;2024-02-23T05:26:13;99390.77;;;7.99;100.00
57050;BME280;42935;50.966;16.992;2024-02-23T05:29:32;99410.41;;;7.93;100.00
57050;BME280;42935;50.966;16.992;2024-02-23T05:32:51;99416.19;;;7.81;100.00
57050;BME280;42935;50.966;16.992;2024-02-23T05:36:09;99432.69;;;7.94;100.00
57050;BME280;42935;50.966;16.992;2024-02-23T05:39:28;99429.40;;;7.95;100.00
57050;BME280;42935;50.966;16.992;2024-02-23T05:42:48;99442.38;;;8.36;100.00
57050;BME280;42935;50.966;16.992;2024-02-23T05:46:10;99438.72;;;8.36;100.00
57050;BME280;42935;50.966;16.992;2024-02-23T05:49:29;99457.16;;;8.40;100.00
57050;BME280;42935;50.966;16.992;2024-02-23T05:52:50;99466.24;;;8.46;100.00
57050;BME280;42935;50.966;16.992;2024-02-23T05:56:13;99466.94;;;8.53;100.00
57050;BME280;42935;50.966;16.992;2024-02-23T05:59:32;99478.84;;;8.69;100.00
57050;BME280;42935;50.966;16.992;2024-02-23T06:02:54;99490.03;;;8.77;100.00
57050;BME280;42935;50.966;16.992;2024-02-23T06:06:18;99501.28;;;8.82;100.00
57050;BME280;42935;50.966;16.992;2024-02-23T06:09:41;99509.18;;;8.78;100.00
57050;BME280;42935;50.966;16.992;2024-02-23T06:13:03;99515.13;;;8.86;100.00
57050;BME280;42935;50.966;16.992;2024-02-23T06:16:22;99522.25;;;8.90;100.00
57050;BME280;42935;50.966;16.992;2024-02-23T06:19:42;99524.60;;;8.95;100.00
57050;BME280;42935;50.966;16.992;2024-02-23T06:23:07;99531.88;;;8.99;100.00
57050;BME280;42935;50.966;16.992;2024-02-23T06:26:28;99533.39;;;8.94;100.00
57050;BME280;42935;50.966;16.992;2024-02-23T06:29:47;99531.80;;;8.87;100.00
57050;BME280;42935;50.966;16.992;2024-02-23T06:33:05;99543.63;;;8.90;100.00
57050;BME280;42935;50.966;16.992;2024-02-23T06:36:26;99544.21;;;8.86;100.00
57050;BME280;42935;50.966;16.992;2024-02-23T06:39:48;99557.43;;;8.85;100.00
57050;BME280;42935;50.966;16.992;2024-02-23T06:43:18;99565.59;;;8.86;100.00
57050;BME280;42935;50.966;16.992;2024-02-23T06:46:38;99566.51;;;8.82;100.00
57050;BME280;42935;50.966;16.992;2024-02-23T06:49:57;99556.70;;;8.75;100.00
57050;BME280;42935;50.966;16.992;2024-02-23T06:53:19;99543.38;;;8.74;100.00
57050;BME280;42935;50.966;16.992;2024-02-23T06:56:47;99566.87;;;8.84;100.00
57050;BME280;42935;50.966;16.992;2024-02-23T07:00:10;99566.70;;;8.78;100.00
57050;BME280;42935;50.966;16.992;2024-02-23T07:03:27;99579.17;;;8.82;100.00
57050;BME280;42935;50.966;16.992;2024-02-23T07:06:48;99581.23;;;8.84;100.00
57050;BME280;42935;50.966;16.992;2024-02-23T07:10:06;99581.39;;;8.76;100.00
57050;BME280;42935;50.966;16.992;2024-02-23T07:13:24;99592.58;;;8.82;100.00
57050;BME280;42935;50.966;16.992;2024-02-23T07:16:41;99599.52;;;8.89;100.00
57050;BME280;42935;50.966;16.992;2024-02-23T07:20:03;99593.89;;;8.82;100.00
57050;BME280;42935;50.966;16.992;2024-02-23T07:23:24;99605.09;;;8.88;100.00
57050;BME280;42935;50.966;16.992;2024-02-23T07:26:43;99596.93;;;8.71;100.00
57050;BME280;42935;50.966;16.992;2024-02-23T07:30:00;99577.09;;;8.53;100.00
57050;BME280;42935;50.966;16.992;2024-02-23T07:33:22;99606.51;;;8.72;100.00
57050;BME280;42935;50.966;16.992;2024-02-23T07:36:42;99608.98;;;8.73;100.00
57050;BME280;42935;50.966;16.992;2024-02-23T07:40:01;99615.36;;;8.79;100.00
57050;BME280;42935;50.966;16.992;2024-02-23T07:43:21;99619.73;;;8.86;100.00
57050;BME280;42935;50.966;16.992;2024-02-23T07:46:40;99622.25;;;8.95;100.00
57050;BME280;42935;50.966;16.992;2024-02-23T07:49:59;99623.66;;;8.99;100.00
57050;BME280;42935;50.966;16.992;2024-02-23T07:53:18;99626.12;;;9.04;100.00
57050;BME280;42935;50.966;16.992;2024-02-23T07:57:10;99633.63;;;9.03;100.00
57050;BME280;42935;50.966;16.992;2024-02-23T08:00:31;99632.47;;;9.12;100.00
57050;BME280;42935;50.966;16.992;2024-02-23T08:03:53;99638.35;;;9.20;100.00
57050;BME280;42935;50.966;16.992;2024-02-23T08:07:11;99639.10;;;9.19;100.00
57050;BME280;42935;50.966;16.992;2024-02-23T08:10:28;99625.85;;;8.90;100.00
57050;BME280;42935;50.966;16.992;2024-02-23T08:13:45;99667.76;;;9.04;100.00
57050;BME280;42935;50.966;16.992;2024-02-23T08:17:06;99671.86;;;9.18;100.00
57050;BME280;42935;50.966;16.992;2024-02-23T08:20:23;99668.55;;;9.23;100.00
57050;BME280;42935;50.966;16.992;2024-02-23T08:23:43;99664.54;;;9.32;100.00
57050;BME280;42935;50.966;16.992;2024-02-23T08:27:03;99672.36;;;9.41;100.00
57050;BME280;42935;50.966;16.992;2024-02-23T08:30:26;99668.78;;;9.46;100.00
57050;BME280;42935;50.966;16.992;2024-02-23T08:33:47;99679.05;;;9.61;100.00
57050;BME280;42935;50.966;16.992;2024-02-23T08:37:07;99687.30;;;9.77;100.00
57050;BME280;42935;50.966;16.992;2024-02-23T08:40:26;99695.96;;;9.80;100.00
57050;BME280;42935;50.966;16.992;2024-02-23T08:43:47;99701.33;;;9.90;100.00
57050;BME280;42935;50.966;16.992;2024-02-23T08:47:12;99698.84;;;9.78;100.00
57050;BME280;42935;50.966;16.992;2024-02-23T08:50:30;99710.28;;;9.72;100.00
57050;BME280;42935;50.966;16.992;2024-02-23T08:53:47;99712.79;;;9.76;100.00
57050;BME280;42935;50.966;16.992;2024-02-23T08:57:06;99715.73;;;9.61;100.00
57050;BME280;42935;50.966;16.992;2024-02-23T09:00:25;99727.40;;;9.84;100.00
57050;BME280;42935;50.966;16.992;2024-02-23T09:03:47;99735.59;;;9.76;100.00
57050;BME280;42935;50.966;16.992;2024-02-23T09:07:06;99736.48;;;9.69;100.00
57050;BME280;42935;50.966;16.992;2024-02-23T09:10:24;99761.13;;;9.77;100.00
57050;BME280;42935;50.966;16.992;2024-02-23T09:13:56;99743.48;;;9.53;98.20
57050;BME280;42935;50.966;16.992;2024-02-23T09:17:21;99766.27;;;9.20;86.71
57050;BME280;42935;50.966;16.992;2024-02-23T09:21:15;99799.75;;;9.11;88.37
57050;BME280;42935;50.966;16.992;2024-02-23T09:24:39;99795.39;;;9.03;87.53
57050;BME280;42935;50.966;16.992;2024-02-23T09:28:01;99803.37;;;9.08;89.73
57050;BME280;42935;50.966;16.992;2024-02-23T09:31:20;99799.65;;;8.97;93.80
57050;BME280;42935;50.966;16.992;2024-02-23T09:34:41;99798.62;;;9.11;97.31
57050;BME280;42935;50.966;16.992;2024-02-23T09:38:05;99797.73;;;9.04;98.33
57050;BME280;42935;50.966;16.992;2024-02-23T09:41:24;99810.33;;;9.05;95.68
57050;BME280;42935;50.966;16.992;2024-02-23T09:44:45;99819.36;;;9.10;94.60
57050;BME280;42935;50.966;16.992;2024-02-23T09:48:10;99821.81;;;9.10;89.61
57050;BME280;42935;50.966;16.992;2024-02-23T09:51:36;99827.91;;;9.16;88.18
57050;BME280;42935;50.966;16.992;2024-02-23T09:55:00;99827.84;;;9.20;88.28
57050;BME280;42935;50.966;16.992;2024-02-23T09:58:21;99833.88;;;9.20;84.48
57050;BME280;42935;50.966;16.992;2024-02-23T10:01:44;99838.87;;;9.30;85.75
57050;BME280;42935;50.966;16.992;2024-02-23T10:05:03;99839.92;;;9.30;83.72
57050;BME280;42935;50.966;16.992;2024-02-23T10:08:25;99847.46;;;9.38;81.44
57050;BME280;42935;50.966;16.992;2024-02-23T10:11:52;99860.88;;;9.47;82.97
57050;BME280;42935;50.966;16.992;2024-02-23T10:15:12;99868.27;;;9.52;80.58
57050;BME280;42935;50.966;16.992;2024-02-23T10:19:01;99855.45;;;9.49;78.57
57050;BME280;42935;50.966;16.992;2024-02-23T10:22:23;99875.49;;;9.61;78.98
57050;BME280;42935;50.966;16.992;2024-02-23T10:25:43;99870.55;;;9.66;78.99
57050;BME280;42935;50.966;16.992;2024-02-23T10:29:05;99871.30;;;9.64;78.21
57050;BME280;42935;50.966;16.992;2024-02-23T10:32:29;99873.24;;;9.59;77.84
57050;BME280;42935;50.966;16.992;2024-02-23T10:35:56;99888.60;;;9.49;80.48
57050;BME280;42935;50.966;16.992;2024-02-23T10:39:24;99894.99;;;9.58;82.54
57050;BME280;42935;50.966;16.992;2024-02-23T10:42:47;99900.46;;;9.20;82.16
57050;BME280;42935;50.966;16.992;2024-02-23T10:46:12;99896.93;;;9.26;81.02
57050;BME280;42935;50.966;16.992;2024-02-23T10:49:31;99885.78;;;9.30;83.86
57050;BME280;42935;50.966;16.992;2024-02-23T10:52:52;99889.35;;;9.33;84.14
57050;BME280;42935;50.966;16.992;2024-02-23T10:56:10;99877.65;;;9.31;86.23
57050;BME280;42935;50.966;16.992;2024-02-23T10:59:30;99877.76;;;9.31;81.89
57050;BME280;42935;50.966;16.992;2024-02-23T11:02:51;99888.45;;;9.44;82.96
57050;BME280;42935;50.966;16.992;2024-02-23T11:06:16;99895.32;;;9.51;82.10
57050;BME280;42935;50.966;16.992;2024-02-23T11:09:42;99886.18;;;9.59;78.91
57050;BME280;42935;50.966;16.992;2024-02-23T11:13:08;99888.59;;;9.70;79.06
57050;BME280;42935;50.966;16.992;2024-02-23T11:16:32;99881.77;;;10.11;81.16
57050;BME280;42935;50.966;16.992;2024-02-23T11:19:53;99884.01;;;10.56;81.80
57050;BME280;42935;50.966;16.992;2024-02-23T11:23:13;99880.03;;;10.93;78.37
57050;BME280;42935;50.966;16.992;2024-02-23T11:26:38;99865.73;;;11.07;76.10
57050;BME280;42935;50.966;16.992;2024-02-23T11:30:05;99869.21;;;11.14;76.17
57050;BME280;42935;50.966;16.992;2024-02-23T11:33:29;99851.78;;;11.06;76.54
57050;BME280;42935;50.966;16.992;2024-02-23T11:36:51;99847.48;;;11.20;74.44
57050;BME280;42935;50.966;16.992;2024-02-23T11:40:09;99831.50;;;11.31;72.59
57050;BME280;42935;50.966;16.992;2024-02-23T11:43:28;99841.30;;;10.99;73.97
57050;BME280;42935;50.966;16.992;2024-02-23T11:46:49;99854.42;;;11.14;74.08
57050;BME280;42935;50.966;16.992;2024-02-23T11:50:08;99817.66;;;10.89;73.32
57050;BME280;42935;50.966;16.992;2024-02-23T11:54:00;99857.36;;;11.03;73.12
57050;BME280;42935;50.966;16.992;2024-02-23T11:57:19;99879.59;;;11.03;72.69
57050;BME280;42935;50.966;16.992;2024-02-23T12:00:36;99883.84;;;10.97;74.44
57050;BME280;42935;50.966;16.992;2024-02-23T12:04:07;99903.04;;;10.66;75.13
57050;BME280;42935;50.966;16.992;2024-02-23T12:07:22;99906.90;;;10.63;75.45
57050;BME280;42935;50.966;16.992;2024-02-23T12:10:46;99909.73;;;10.39;75.67
57050;BME280;42935;50.966;16.992;2024-02-23T12:14:11;99925.30;;;10.12;78.77
57050;BME280;42935;50.966;16.992;2024-02-23T12:17:35;99917.16;;;10.22;80.71
57050;BME280;42935;50.966;16.992;2024-02-23T12:21:00;99929.66;;;10.39;77.78
57050;BME280;42935;50.966;16.992;2024-02-23T12:24:23;99918.49;;;10.53;77.38
57050;BME280;42935;50.966;16.992;2024-02-23T12:27:54;99928.97;;;10.68;76.99
57050;BME280;42935;50.966;16.992;2024-02-23T12:31:23;99932.31;;;10.53;78.83
57050;BME280;42935;50.966;16.992;2024-02-23T12:34:44;99928.41;;;10.63;81.90
57050;BME280;42935;50.966;16.992;2024-02-23T12:38:06;99931.84;;;10.72;81.98
57050;BME280;42935;50.966;16.992;2024-02-23T12:41:23;99931.68;;;10.82;84.38
57050;BME280;42935;50.966;16.992;2024-02-23T12:44:40;99946.87;;;10.50;88.69
57050;BME280;42935;50.966;16.992;2024-02-23T12:48:01;99949.36;;;9.96;90.24
57050;BME280;42935;50.966;16.992;2024-02-23T12:51:25;99949.70;;;9.81;95.15
57050;BME280;42935;50.966;16.992;2024-02-23T12:54:45;99949.63;;;9.76;95.83
57050;BME280;42935;50.966;16.992;2024-02-23T12:58:04;99944.66;;;9.26;89.24
57050;BME280;42935;50.966;16.992;2024-02-23T13:01:26;99940.59;;;9.10;79.48
57050;BME280;42935;50.966;16.992;2024-02-23T13:04:48;99936.08;;;9.24;79.62
57050;BME280;42935;50.966;16.992;2024-02-23T13:08:10;99923.30;;;9.33;84.99
57050;BME280;42935;50.966;16.992;2024-02-23T13:11:32;99924.23;;;9.31;82.50
57050;BME280;42935;50.966;16.992;2024-02-23T13:14:51;99942.55;;;9.50;81.54
57050;BME280;42935;50.966;16.992;2024-02-23T13:18:13;99944.10;;;9.50;80.31
57050;BME280;42935;50.966;16.992;2024-02-23T13:21:29;99923.99;;;9.45;81.58
57050;BME280;42935;50.966;16.992;2024-02-23T13:25:14;99947.13;;;9.55;80.55
57050;BME280;42935;50.966;16.992;2024-02-23T13:29:06;99948.05;;;9.44;86.16
57050;BME280;42935;50.966;16.992;2024-02-23T13:32:52;99947.80;;;9.19;87.16
57050;BME280;42935;50.966;16.992;2024-02-23T13:36:14;99946.73;;;9.22;86.16
57050;BME280;42935;50.966;16.992;2024-02-23T13:39:31;99913.44;;;8.92;87.35
57050;BME280;42935;50.966;16.992;2024-02-23T13:42:51;99934.54;;;9.14;86.31
57050;BME280;42935;50.966;16.992;2024-02-23T13:46:23;99949.93;;;9.23;86.84
57050;BME280;42935;50.966;16.992;2024-02-23T13:49:41;99945.57;;;9.40;86.33
57050;BME280;42935;50.966;16.992;2024-02-23T13:53:02;99942.11;;;9.36;85.78
57050;BME280;42935;50.966;16.992;2024-02-23T13:56:21;99945.41;;;9.27;89.12
57050;BME280;42935;50.966;16.992;2024-02-23T13:59:39;99933.18;;;9.45;89.13
57050;BME280;42935;50.966;16.992;2024-02-23T14:03:00;99941.56;;;9.38;87.06
57050;BME280;42935;50.966;16.992;2024-02-23T14:06:19;99937.46;;;9.25;85.77
57050;BME280;42935;50.966;16.992;2024-02-23T14:09:37;99947.66;;;9.33;87.05
57050;BME280;42935;50.966;16.992;2024-02-23T14:12:59;99962.68;;;9.27;86.61
57050;BME280;42935;50.966;16.992;2024-02-23T14:16:17;99964.93;;;9.12;88.51
57050;BME280;42935;50.966;16.992;2024-02-23T14:19:38;99964.43;;;8.98;88.43
57050;BME280;42935;50.966;16.992;2024-02-23T14:23:30;99960.11;;;8.94;87.49
57050;BME280;42935;50.966;16.992;2024-02-23T14:26:49;99950.84;;;8.98;86.60
57050;BME280;42935;50.966;16.992;2024-02-23T14:30:07;99958.44;;;9.00;86.42
57050;BME280;42935;50.966;16.992;2024-02-23T14:33:59;99952.38;;;8.84;86.27
57050;BME280;42935;50.966;16.992;2024-02-23T14:37:27;99952.35;;;8.86;86.38
57050;BME280;42935;50.966;16.992;2024-02-23T14:40:48;99972.91;;;8.89;85.73
57050;BME280;42935;50.966;16.992;2024-02-23T14:44:07;99977.13;;;8.83;87.88
57050;BME280;42935;50.966;16.992;2024-02-23T14:48:00;99989.20;;;8.56;89.13
57050;BME280;42935;50.966;16.992;2024-02-23T14:51:21;99997.81;;;8.47;90.31
57050;BME280;42935;50.966;16.992;2024-02-23T14:54:43;99972.72;;;8.15;89.70
57050;BME280;42935;50.966;16.992;2024-02-23T14:58:10;100011.10;;;8.53;88.11
57050;BME280;42935;50.966;16.992;2024-02-23T15:01:29;100018.73;;;8.52;87.17
57050;BME280;42935;50.966;16.992;2024-02-23T15:04:48;100012.57;;;8.49;86.81
57050;BME280;42935;50.966;16.992;2024-02-23T15:08:06;100017.55;;;8.56;87.58
57050;BME280;42935;50.966;16.992;2024-02-23T15:11:28;100026.63;;;8.54;89.72
57050;BME280;42935;50.966;16.992;2024-02-23T15:14:45;100016.68;;;8.43;90.33
57050;BME280;42935;50.966;16.992;2024-02-23T15:18:34;99983.34;;;8.27;92.87
57050;BME280;42935;50.966;16.992;2024-02-23T15:21:52;100014.51;;;8.50;94.86
57050;BME280;42935;50.966;16.992;2024-02-23T15:25:10;99999.34;;;8.26;95.17
57050;BME280;42935;50.966;16.992;2024-02-23T15:28:28;99999.21;;;8.14;95.23
57050;BME280;42935;50.966;16.992;2024-02-23T15:31:49;99990.68;;;7.78;98.03
57050;BME280;42935;50.966;16.992;2024-02-23T15:35:09;99998.70;;;7.70;97.18
57050;BME280;42935;50.966;16.992;2024-02-23T15:38:27;99989.52;;;7.72;98.58
57050;BME280;42935;50.966;16.992;2024-02-23T15:41:48;99990.60;;;7.47;100.00
57050;BME280;42935;50.966;16.992;2024-02-23T15:45:10;99989.09;;;7.33;100.00
57050;BME280;42935;50.966;16.992;2024-02-23T15:48:32;99990.19;;;7.39;100.00
57050;BME280;42935;50.966;16.992;2024-02-23T15:51:54;99991.51;;;7.17;100.00
57050;BME280;42935;50.966;16.992;2024-02-23T15:55:43;99989.21;;;7.04;100.00
57050;BME280;42935;50.966;16.992;2024-02-23T15:59:00;99996.16;;;7.06;100.00
57050;BME280;42935;50.966;16.992;2024-02-23T16:02:25;100007.73;;;7.22;100.00
57050;BME280;42935;50.966;16.992;2024-02-23T16:05:50;100007.60;;;7.29;100.00
57050;BME280;42935;50.966;16.992;2024-02-23T16:09:18;100002.13;;;7.08;100.00
57050;BME280;42935;50.966;16.992;2024-02-23T16:12:42;100021.28;;;7.10;100.00
57050;BME280;42935;50.966;16.992;2024-02-23T16:16:10;100022.56;;;7.13;100.00
57050;BME280;42935;50.966;16.992;2024-02-23T16:19:34;100028.77;;;6.98;100.00
57050;BME280;42935;50.966;16.992;2024-02-23T16:23:25;100032.26;;;7.08;100.00
57050;BME280;42935;50.966;16.992;2024-02-23T16:26:42;100033.99;;;7.03;100.00
57050;BME280;42935;50.966;16.992;2024-02-23T16:29:59;100041.15;;;7.02;100.00
57050;BME280;42935;50.966;16.992;2024-02-23T16:33:21;100040.88;;;7.00;100.00
57050;BME280;42935;50.966;16.992;2024-02-23T16:36:48;100040.84;;;6.96;100.00
57050;BME280;42935;50.966;16.992;2024-02-23T16:43:47;100038.18;;;6.72;100.00
57050;BME280;42935;50.966;16.992;2024-02-23T16:47:09;100033.39;;;6.68;100.00
57050;BME280;42935;50.966;16.992;2024-02-23T16:50:31;100049.63;;;6.56;100.00
57050;BME280;42935;50.966;16.992;2024-02-23T16:53:52;100054.34;;;6.62;100.00
57050;BME280;42935;50.966;16.992;2024-02-23T16:57:11;100062.81;;;6.55;100.00
57050;BME280;42935;50.966;16.992;2024-02-23T17:00:30;100058.40;;;6.41;100.00
57050;BME280;42935;50.966;16.992;2024-02-23T17:03:49;100045.66;;;6.34;100.00
57050;BME280;42935;50.966;16.992;2024-02-23T17:07:08;100049.19;;;6.27;100.00
57050;BME280;42935;50.966;16.992;2024-02-23T17:10:33;100060.20;;;6.36;100.00
57050;BME280;42935;50.966;16.992;2024-02-23T17:13:56;100068.42;;;6.40;100.00
57050;BME280;42935;50.966;16.992;2024-02-23T17:17:15;100063.38;;;6.23;100.00
57050;BME280;42935;50.966;16.992;2024-02-23T17:20:36;100070.98;;;6.43;100.00
57050;BME280;42935;50.966;16.992;2024-02-23T17:23:59;100057.21;;;6.43;100.00
57050;BME280;42935;50.966;16.992;2024-02-23T17:27:18;100061.42;;;6.55;100.00
57050;BME280;42935;50.966;16.992;2024-02-23T17:30:41;100062.16;;;6.44;100.00
57050;BME280;42935;50.966;16.992;2024-02-23T17:34:02;100069.49;;;6.52;100.00
57050;BME280;42935;50.966;16.992;2024-02-23T17:37:24;100055.66;;;6.52;100.00
57050;BME280;42935;50.966;16.992;2024-02-23T17:40:41;100056.65;;;6.56;100.00
57050;BME280;42935;50.966;16.992;2024-02-23T17:44:05;100056.86;;;6.36;100.00